createdAt,value
2022-08-08T00:01:00.323Z,51.21
2022-08-08T00:03:48.356Z,51.18
2022-08-08T00:06:28.513Z,51.05
2022-08-08T00:09:16.099Z,51.10
2022-08-08T00:12:09.238Z,51.54
2022-08-08T00:14:48.379Z,51.33
2022-08-08T00:18:01.831Z,51.01
2022-08-08T00:20:39.128Z,51.34
2022-08-08T00:23:28.564Z,51.48
2022-08-08T00:26:13.098Z,51.11
2022-08-08T00:28:42.855Z,51.39
2022-08-08T00:32:28.276Z,51.22
2022-08-08T00:34:30.909Z,51.40
2022-08-08T00:37:03.380Z,51.23
2022-08-08T00:41:10.698Z,51.38
2022-08-08T00:42:42.151Z,51.12
2022-08-08T00:45:32.363Z,51.24
2022-08-08T00:48:30.216Z,51.10
2022-08-08T00:51:09.615Z,51.33
2022-08-08T00:53:43.644Z,51.21
2022-08-08T00:56:38.640Z,51.30
2022-08-08T00:59:43.625Z,51.07
2022-08-08T01:03:15.560Z,50.99
2022-08-08T01:05:06.690Z,51.33
2022-08-08T01:07:55.336Z,51.13
2022-08-08T01:10:50.754Z,51.54
2022-08-08T01:13:23.167Z,51.29
2022-08-08T01:16:27.881Z,51.48
2022-08-08T01:19:13.738Z,50.96
2022-08-08T01:22:13.676Z,51.16
2022-08-08T01:25:09.137Z,51.04
2022-08-08T01:27:50.610Z,50.98
2022-08-08T01:30:26.821Z,51.16
2022-08-08T01:33:16.424Z,51.29
2022-08-08T01:35:53.719Z,51.12
2022-08-08T01:38:41.396Z,50.86
2022-08-08T01:41:24.345Z,51.07
2022-08-08T01:44:07.295Z,50.93
2022-08-08T01:46:52.330Z,51.21
2022-08-08T01:49:37.856Z,50.99
2022-08-08T01:52:52.195Z,50.89
2022-08-08T01:56:28.454Z,50.84
2022-08-08T01:58:47.276Z,51.08
2022-08-08T02:01:59.717Z,50.94
2022-08-08T02:04:44.117Z,51.07
2022-08-08T02:07:41.577Z,51.03
2022-08-08T02:10:29.482Z,51.01
2022-08-08T02:13:54.871Z,50.83
2022-08-08T02:16:34.409Z,51.04
2022-08-08T02:19:00.726Z,50.98
2022-08-08T02:22:13.889Z,50.83
2022-08-08T02:24:46.893Z,51.08
2022-08-08T02:27:23.616Z,50.98
2022-08-08T02:29:53.184Z,51.09
2022-08-08T02:32:33.805Z,51.22
2022-08-08T02:35:11.016Z,50.84
2022-08-08T02:37:53.553Z,51.17
2022-08-08T02:40:42.169Z,51.04
2022-08-08T02:44:42.734Z,51.37
2022-08-08T02:46:36.091Z,51.38
2022-08-08T02:49:48.226Z,51.35
2022-08-08T02:52:35.051Z,51.39
2022-08-08T02:55:22.070Z,51.18
2022-08-08T02:58:15.020Z,51.16
2022-08-08T03:00:51.356Z,51.11
2022-08-08T03:05:00.773Z,51.37
2022-08-08T03:06:36.433Z,51.26
2022-08-08T03:09:37.136Z,51.73
2022-08-08T03:12:14.382Z,51.97
2022-08-08T03:16:02.086Z,51.70
2022-08-08T03:18:04.513Z,51.75
2022-08-08T03:20:51.166Z,51.45
2022-08-08T03:23:23.559Z,51.18
2022-08-08T03:25:50.971Z,50.89
2022-08-08T03:28:21.577Z,50.95
2022-08-08T03:31:22.735Z,50.68
2022-08-08T03:33:55.739Z,50.59
2022-08-08T03:36:27.984Z,50.36
2022-08-08T03:39:14.205Z,50.24
2022-08-08T03:42:26.830Z,50.02
2022-08-08T03:44:32.737Z,50.10
2022-08-08T03:47:14.086Z,49.72
2022-08-08T03:50:00.359Z,49.82
2022-08-08T03:52:35.473Z,49.77
2022-08-08T03:55:10.183Z,49.44
2022-08-08T03:58:09.482Z,49.68
2022-08-08T04:00:26.530Z,49.43
2022-08-08T04:03:11.471Z,49.35
2022-08-08T04:05:39.859Z,49.18
2022-08-08T04:08:32.945Z,48.82
2022-08-08T04:11:02.911Z,49.13
2022-08-08T04:14:03.286Z,48.98
2022-08-08T04:16:38.325Z,48.79
2022-08-08T04:19:23.018Z,48.73
2022-08-08T04:21:56.022Z,48.67
2022-08-08T04:24:28.570Z,48.57
2022-08-08T04:26:58.207Z,48.55
2022-08-08T04:29:26.774Z,48.53
2022-08-08T04:31:59.163Z,48.45
2022-08-08T04:34:28.048Z,48.39
2022-08-08T04:36:58.917Z,48.40
2022-08-08T04:40:03.762Z,48.49
2022-08-08T04:42:15.969Z,48.48
2022-08-08T04:44:43.635Z,48.69
2022-08-08T04:47:14.417Z,48.42
2022-08-08T04:49:58.977Z,48.57
2022-08-08T04:52:34.156Z,48.53
2022-08-08T04:55:07.955Z,48.69
2022-08-08T04:57:35.065Z,48.50
2022-08-08T05:00:03.435Z,48.47
2022-08-08T05:02:31.025Z,48.54
2022-08-08T05:04:59.346Z,48.57
2022-08-08T05:07:38.097Z,48.57
2022-08-08T05:10:13.025Z,48.66
2022-08-08T05:12:53.441Z,48.68
2022-08-08T05:16:47.735Z,48.73
2022-08-08T05:18:12.991Z,48.91
2022-08-08T05:20:50.399Z,48.65
2022-08-08T05:23:19.257Z,48.59
2022-08-08T05:25:46.797Z,48.75
2022-08-08T05:28:13.466Z,48.77
2022-08-08T05:30:47.175Z,48.86
2022-08-08T05:33:16.853Z,49.03
2022-08-08T05:35:44.985Z,49.04
2022-08-08T05:38:31.733Z,49.10
2022-08-08T05:41:07.420Z,48.84
2022-08-08T05:43:39.403Z,48.85
2022-08-08T05:46:24.413Z,49.09
2022-08-08T05:48:52.177Z,49.07
2022-08-08T05:51:20.220Z,49.37
2022-08-08T05:54:25.285Z,49.38
2022-08-08T05:56:42.582Z,49.44
2022-08-08T05:59:59.053Z,49.21
2022-08-08T06:02:25.829Z,49.39
2022-08-08T06:04:54.603Z,49.30
2022-08-08T06:07:22.372Z,49.12
2022-08-08T06:09:59.440Z,49.56
2022-08-08T06:12:30.746Z,49.70
2022-08-08T06:14:59.746Z,49.63
2022-08-08T06:17:50.587Z,49.66
2022-08-08T06:20:13.115Z,49.53
2022-08-08T06:22:42.877Z,49.83
2022-08-08T06:25:17.978Z,49.56
2022-08-08T06:27:49.031Z,49.77
2022-08-08T06:30:20.273Z,49.79
2022-08-08T06:32:56.733Z,49.78
2022-08-08T06:36:07.348Z,49.79
2022-08-08T06:38:14.616Z,49.63
2022-08-08T06:40:48.385Z,49.72
2022-08-08T06:43:15.501Z,50.02
2022-08-08T06:45:51.407Z,49.75
2022-08-08T06:48:18.422Z,50.13
2022-08-08T06:50:45.014Z,49.78
2022-08-08T06:53:20.046Z,49.99
2022-08-08T06:56:02.835Z,50.05
2022-08-08T06:58:33.623Z,49.90
2022-08-08T07:01:11.482Z,49.74
2022-08-08T07:04:37.385Z,49.87
2022-08-08T07:06:59.303Z,49.98
2022-08-08T07:09:45.218Z,49.75
2022-08-08T07:12:30.538Z,49.80
2022-08-08T07:15:01.419Z,49.90
2022-08-08T07:17:56.614Z,49.79
2022-08-08T07:20:20.520Z,49.73
2022-08-08T07:22:53.319Z,49.65
2022-08-08T07:25:20.075Z,49.85
2022-08-08T07:28:02.892Z,49.90
2022-08-08T07:30:33.710Z,49.74
2022-08-08T07:33:01.100Z,49.94
2022-08-08T07:35:29.153Z,49.73
2022-08-08T07:38:10.685Z,49.84
2022-08-08T07:40:50.582Z,49.89
2022-08-08T07:43:35.229Z,49.68
2022-08-08T07:46:24.125Z,49.79
2022-08-08T07:48:56.009Z,49.80
2022-08-08T07:51:44.266Z,49.67
2022-08-08T07:54:26.934Z,49.69
2022-08-08T07:57:04.078Z,49.84
2022-08-08T07:59:41.916Z,49.84
2022-08-08T08:02:35.199Z,49.92
2022-08-08T08:04:57.948Z,49.76
2022-08-08T08:07:25.988Z,49.58
2022-08-08T08:09:58.798Z,49.69
2022-08-08T08:12:35.120Z,49.73
2022-08-08T08:15:09.687Z,49.84
2022-08-08T08:17:47.868Z,49.92
2022-08-08T08:20:17.686Z,49.93
2022-08-08T08:22:44.445Z,49.98
2022-08-08T08:25:16.966Z,49.76
2022-08-08T08:27:49.770Z,49.84
2022-08-08T08:30:16.567Z,49.77
2022-08-08T08:32:51.258Z,49.74
2022-08-08T08:35:21.649Z,49.73
2022-08-08T08:38:18.052Z,49.59
2022-08-08T08:40:48.801Z,49.88
2022-08-08T08:43:18.691Z,49.60
2022-08-08T08:45:46.439Z,49.63
2022-08-08T08:48:16.466Z,49.60
2022-08-08T08:50:49.347Z,49.73
2022-08-08T08:53:27.393Z,49.56
2022-08-08T08:56:10.767Z,49.55
2022-08-08T08:58:46.987Z,49.67
2022-08-08T09:01:21.106Z,49.49
2022-08-08T09:03:51.921Z,49.70
2022-08-08T09:06:34.340Z,49.69
2022-08-08T09:09:25.866Z,49.66
2022-08-08T09:12:07.907Z,49.46
2022-08-08T09:14:42.477Z,49.73
2022-08-08T09:17:14.212Z,49.49
2022-08-08T09:21:56.001Z,49.45
2022-08-08T09:22:31.412Z,49.54
2022-08-08T09:24:58.741Z,49.22
2022-08-08T09:27:41.926Z,49.00
2022-08-08T09:30:17.465Z,48.99
2022-08-08T09:33:01.291Z,49.05
2022-08-08T09:35:37.094Z,48.79
2022-08-08T09:38:05.662Z,48.80
2022-08-08T09:40:45.545Z,48.60
2022-08-08T09:44:04.732Z,48.72
2022-08-08T09:46:16.712Z,48.57
2022-08-08T09:48:51.460Z,48.93
2022-08-08T09:51:18.810Z,48.64
2022-08-08T09:53:59.739Z,48.59
2022-08-08T09:56:40.051Z,48.86
2022-08-08T09:59:40.510Z,48.59
2022-08-08T10:01:59.650Z,48.78
2022-08-08T10:04:42.485Z,48.95
2022-08-08T10:07:15.903Z,48.73
2022-08-08T10:09:59.714Z,48.72
2022-08-08T10:12:38.385Z,48.99
2022-08-08T10:15:18.898Z,49.02
2022-08-08T10:18:06.627Z,49.12
2022-08-08T10:20:58.247Z,48.91
2022-08-08T10:23:41.553Z,48.96
2022-08-08T10:26:29.812Z,49.04
2022-08-08T10:29:05.364Z,48.82
2022-08-08T10:31:51.250Z,48.79
2022-08-08T10:34:21.046Z,48.92
2022-08-08T10:36:47.858Z,49.07
2022-08-08T10:39:18.146Z,49.13
2022-08-08T10:41:58.561Z,49.14
2022-08-08T10:44:37.747Z,48.93
2022-08-08T10:47:14.602Z,49.00
2022-08-08T10:50:00.824Z,49.08
2022-08-08T10:52:31.106Z,49.09
2022-08-08T10:55:05.103Z,48.87
2022-08-08T10:57:50.091Z,49.00
2022-08-08T11:00:26.174Z,48.95
2022-08-08T11:02:53.218Z,48.88
2022-08-08T11:05:19.586Z,48.94
2022-08-08T11:08:31.825Z,49.13
2022-08-08T11:10:39.050Z,49.10
2022-08-08T11:13:28.026Z,48.65
2022-08-08T11:16:00.377Z,48.83
2022-08-08T11:18:27.794Z,48.99
2022-08-08T11:20:57.676Z,48.81
2022-08-08T11:23:25.095Z,49.00
2022-08-08T11:25:58.426Z,48.85
2022-08-08T11:28:26.065Z,48.71
2022-08-08T11:30:57.862Z,48.83
2022-08-08T11:33:51.444Z,48.99
2022-08-08T11:36:14.515Z,49.12
2022-08-08T11:38:53.920Z,48.90
2022-08-08T11:41:21.435Z,48.65
2022-08-08T11:43:49.015Z,48.80
2022-08-08T11:46:17.935Z,48.95
2022-08-08T11:48:47.155Z,48.80
2022-08-08T11:51:29.542Z,48.91
2022-08-08T11:54:01.182Z,49.12
2022-08-08T11:56:32.073Z,49.06
2022-08-08T11:59:07.952Z,48.78
2022-08-08T12:01:36.111Z,49.12
2022-08-08T12:04:03.378Z,49.03
2022-08-08T12:06:29.843Z,49.00
2022-08-08T12:09:06.513Z,48.95
2022-08-08T12:11:37.329Z,49.11
2022-08-08T12:14:04.685Z,49.25
2022-08-08T12:16:39.571Z,48.90
2022-08-08T12:19:12.889Z,48.85
2022-08-08T12:21:59.849Z,48.97
2022-08-08T12:24:27.622Z,48.78
2022-08-08T12:26:58.736Z,49.06
2022-08-08T12:29:39.942Z,49.05
2022-08-08T12:32:13.425Z,48.90
2022-08-08T12:35:04.481Z,48.98
2022-08-08T12:37:43.357Z,49.01
2022-08-08T12:40:22.752Z,48.89
2022-08-08T12:42:50.716Z,49.10
2022-08-08T12:45:59.304Z,48.88
2022-08-08T12:48:10.057Z,49.16
2022-08-08T12:50:46.948Z,49.20
2022-08-08T12:53:23.894Z,49.17
2022-08-08T12:56:18.178Z,48.99
2022-08-08T12:58:53.949Z,49.23
2022-08-08T13:01:24.761Z,49.00
2022-08-08T13:04:01.095Z,49.15
2022-08-08T13:06:27.462Z,49.28
2022-08-08T13:08:56.437Z,49.19
2022-08-08T13:11:28.611Z,48.98
2022-08-08T13:14:15.330Z,49.33
2022-08-08T13:16:42.123Z,49.25
2022-08-08T13:19:18.021Z,49.64
2022-08-08T13:21:53.061Z,49.74
2022-08-08T13:24:40.940Z,49.90
2022-08-08T13:27:12.497Z,50.32
2022-08-08T13:29:54.544Z,50.87
2022-08-08T13:32:23.782Z,50.81
2022-08-08T13:34:56.423Z,50.54
2022-08-08T13:37:51.854Z,50.94
2022-08-08T13:40:09.879Z,50.79
2022-08-08T13:42:36.239Z,51.16
2022-08-08T13:45:04.522Z,50.96
2022-08-08T13:47:31.064Z,51.27
2022-08-08T13:50:39.875Z,51.72
2022-08-08T13:52:47.198Z,52.08
2022-08-08T13:55:29.321Z,52.05
2022-08-08T13:58:08.178Z,52.22
2022-08-08T14:00:45.100Z,52.04
2022-08-08T14:03:53.107Z,52.06
2022-08-08T14:06:32.558Z,52.05
2022-08-08T14:08:57.196Z,52.14
2022-08-08T14:11:29.252Z,52.49
2022-08-08T14:14:00.348Z,52.31
2022-08-08T14:16:27.509Z,52.55
2022-08-08T14:18:54.917Z,52.43
2022-08-08T14:21:22.270Z,52.56
2022-08-08T14:24:07.068Z,52.43
2022-08-08T14:26:41.665Z,52.25
2022-08-08T14:29:28.011Z,52.45
2022-08-08T14:32:10.938Z,52.26
2022-08-08T14:34:39.262Z,52.44
2022-08-08T14:37:08.979Z,52.27
2022-08-08T14:40:06.074Z,52.37
2022-08-08T14:42:55.228Z,52.80
2022-08-08T14:45:29.153Z,52.84
2022-08-08T14:48:10.427Z,53.03
2022-08-08T14:50:39.555Z,52.76
2022-08-08T14:53:06.676Z,52.98
2022-08-08T14:55:41.017Z,52.71
2022-08-08T14:58:11.684Z,53.02
2022-08-08T15:00:43.173Z,53.00
2022-08-08T15:03:15.706Z,52.93
2022-08-08T15:05:54.774Z,52.96
2022-08-08T15:08:35.252Z,52.99
2022-08-08T15:11:04.868Z,52.95
2022-08-08T15:13:39.679Z,52.95
2022-08-08T15:16:08.541Z,52.94
2022-08-08T15:18:38.658Z,52.77
2022-08-08T15:21:08.096Z,52.88
2022-08-08T15:23:39.145Z,52.71
2022-08-08T15:26:08.501Z,52.76
2022-08-08T15:28:39.065Z,52.70
2022-08-08T15:31:05.447Z,53.02
2022-08-08T15:33:35.438Z,52.88
2022-08-08T15:36:05.254Z,52.95
2022-08-08T15:38:32.404Z,52.72
2022-08-08T15:40:58.929Z,52.90
2022-08-08T15:43:35.631Z,52.87
2022-08-08T15:46:03.131Z,52.82
2022-08-08T15:48:29.888Z,52.80
2022-08-08T15:51:06.228Z,52.76
2022-08-08T15:53:49.556Z,52.96
2022-08-08T15:56:20.272Z,52.74
2022-08-08T15:58:48.445Z,52.57
2022-08-08T16:01:15.566Z,53.03
2022-08-08T16:03:42.179Z,52.71
2022-08-08T16:06:14.353Z,52.97
2022-08-08T16:08:40.966Z,52.58
2022-08-08T16:13:08.806Z,53.04
2022-08-08T16:14:15.973Z,52.77
2022-08-08T16:16:58.794Z,52.90
2022-08-08T16:19:26.147Z,52.68
2022-08-08T16:21:53.988Z,52.75
2022-08-08T16:24:22.847Z,52.71
2022-08-08T16:26:50.795Z,52.96
2022-08-08T16:29:19.367Z,53.05
2022-08-08T16:32:03.803Z,52.59
2022-08-08T16:34:37.665Z,52.67
2022-08-08T16:37:05.245Z,52.59
2022-08-08T16:40:01.292Z,52.61
2022-08-08T16:42:18.769Z,52.49
2022-08-08T16:44:47.391Z,52.42
2022-08-08T16:47:31.501Z,52.84
2022-08-08T16:50:12.713Z,52.70
2022-08-08T16:55:22.637Z,52.77
2022-08-08T16:55:52.658Z,52.66
2022-08-08T16:58:17.676Z,52.68
2022-08-08T17:00:48.724Z,52.62
2022-08-08T17:03:18.098Z,52.28
2022-08-08T17:05:53.488Z,52.54
2022-08-08T17:08:20.255Z,52.61
2022-08-08T17:10:57.686Z,52.25
2022-08-08T17:13:27.523Z,52.30
2022-08-08T17:16:07.865Z,52.65
2022-08-08T17:18:41.893Z,52.22
2022-08-08T17:21:08.934Z,52.50
2022-08-08T17:23:58.885Z,52.16
2022-08-08T17:26:28.813Z,52.15
2022-08-08T17:28:55.983Z,52.40
2022-08-08T17:31:44.316Z,52.52
2022-08-08T17:34:47.920Z,52.25
2022-08-08T17:37:03.577Z,52.41
2022-08-08T17:40:04.904Z,52.40
2022-08-08T17:42:19.528Z,52.27
2022-08-08T17:44:46.370Z,52.28
2022-08-08T17:47:16.295Z,52.13
2022-08-08T17:49:51.595Z,52.34
2022-08-08T17:52:18.924Z,52.27
2022-08-08T17:54:46.310Z,52.41
2022-08-08T17:57:14.271Z,52.51
2022-08-08T17:59:45.796Z,52.26
2022-08-08T18:02:18.623Z,52.31
2022-08-08T18:04:50.895Z,52.56
2022-08-08T18:08:03.018Z,52.53
2022-08-08T18:10:04.005Z,52.70
2022-08-08T18:12:30.490Z,52.65
2022-08-08T18:14:57.526Z,52.66
2022-08-08T18:17:28.453Z,52.49
2022-08-08T18:20:42.918Z,52.79
2022-08-08T18:23:00.609Z,52.74
2022-08-08T18:25:28.560Z,52.84
2022-08-08T18:28:03.943Z,52.57
2022-08-08T18:30:30.313Z,52.83
2022-08-08T18:32:58.312Z,52.62
2022-08-08T18:35:25.081Z,52.54
2022-08-08T18:38:03.892Z,52.70
2022-08-08T18:40:45.857Z,52.83
2022-08-08T18:43:14.731Z,52.95
2022-08-08T18:46:00.272Z,52.96
2022-08-08T18:48:29.597Z,52.85
2022-08-08T18:50:58.161Z,52.98
2022-08-08T18:53:25.219Z,52.96
2022-08-08T18:56:21.201Z,52.87
2022-08-08T18:58:48.998Z,53.08
2022-08-08T19:02:26.305Z,52.98
2022-08-08T19:04:12.601Z,53.11
2022-08-08T19:06:39.237Z,52.92
2022-08-08T19:09:13.298Z,53.15
2022-08-08T19:11:40.122Z,52.88
2022-08-08T19:14:13.059Z,52.94
2022-08-08T19:16:41.171Z,52.94
2022-08-08T19:19:13.968Z,52.83
2022-08-08T19:21:49.610Z,52.90
2022-08-08T19:24:34.124Z,53.13
2022-08-08T19:27:02.968Z,52.97
2022-08-08T19:29:30.408Z,53.22
2022-08-08T19:31:57.313Z,53.06
2022-08-08T19:34:36.289Z,53.19
2022-08-08T19:37:07.781Z,53.30
2022-08-08T19:39:42.647Z,53.28
2022-08-08T19:42:12.693Z,53.14
2022-08-08T19:44:42.694Z,53.43
2022-08-08T19:47:09.860Z,53.52
2022-08-08T19:49:38.861Z,53.21
2022-08-08T19:52:06.506Z,53.37
2022-08-08T19:54:33.339Z,53.59
2022-08-08T19:56:59.710Z,53.71
2022-08-08T19:59:30.722Z,53.41
2022-08-08T20:02:04.500Z,53.77
2022-08-08T20:04:32.192Z,53.69
2022-08-08T20:07:05.259Z,53.65
2022-08-08T20:09:56.665Z,53.83
2022-08-08T20:12:32.957Z,53.76
2022-08-08T20:15:14.145Z,53.92
2022-08-08T20:17:43.475Z,54.24
2022-08-08T20:20:11.433Z,54.55
2022-08-08T20:22:38.678Z,54.87
2022-08-08T20:25:05.239Z,55.27
2022-08-08T20:27:49.143Z,55.62
2022-08-08T20:30:53.797Z,55.69
2022-08-08T20:33:03.542Z,55.66
2022-08-08T20:35:58.749Z,55.30
2022-08-08T20:38:20.956Z,55.13
2022-08-08T20:40:58.368Z,55.10
2022-08-08T20:43:43.906Z,55.14
2022-08-08T20:46:11.110Z,55.03
2022-08-08T20:48:37.517Z,54.53
2022-08-08T20:51:05.394Z,54.88
2022-08-08T20:53:57.928Z,54.74
2022-08-08T20:56:18.923Z,54.64
2022-08-08T20:59:05.652Z,54.47
2022-08-08T21:01:32.660Z,54.46
2022-08-08T21:04:11.000Z,54.43
2022-08-08T21:06:52.809Z,54.51
2022-08-08T21:09:20.348Z,54.36
2022-08-08T21:11:51.198Z,54.45
2022-08-08T21:14:18.925Z,54.55
2022-08-08T21:17:00.249Z,54.35
2022-08-08T21:19:34.048Z,54.55
2022-08-08T21:22:11.237Z,54.12
2022-08-08T21:24:39.089Z,54.15
2022-08-08T21:27:08.283Z,54.26
2022-08-08T21:30:03.698Z,54.32
2022-08-08T21:32:33.001Z,54.41
2022-08-08T21:36:17.031Z,54.06
2022-08-08T21:37:55.337Z,54.15
2022-08-08T21:40:31.255Z,54.07
2022-08-08T21:42:58.228Z,54.09
2022-08-08T21:47:59.246Z,54.23
2022-08-08T21:48:20.189Z,54.33
2022-08-08T21:50:50.625Z,54.13
2022-08-08T21:54:35.469Z,54.26
2022-08-08T21:56:26.932Z,53.92
2022-08-08T21:58:54.752Z,53.92
2022-08-08T22:01:39.175Z,54.11
2022-08-08T22:04:07.173Z,54.17
2022-08-08T22:06:38.027Z,54.13
2022-08-08T22:09:08.219Z,53.92
2022-08-08T22:11:59.199Z,54.01
2022-08-08T22:14:21.838Z,54.18
2022-08-08T22:16:51.086Z,54.07
2022-08-08T22:19:20.101Z,54.18
2022-08-08T22:21:50.627Z,53.83
2022-08-08T22:24:17.257Z,54.18
2022-08-08T22:27:01.871Z,53.86
2022-08-08T22:30:01.811Z,54.10
2022-08-08T22:32:17.980Z,53.94
2022-08-08T22:34:45.138Z,53.87
2022-08-08T22:37:49.060Z,53.93
2022-08-08T22:40:04.498Z,53.81
2022-08-08T22:42:34.375Z,53.76
2022-08-08T22:45:01.753Z,53.84
2022-08-08T22:47:34.296Z,53.53
2022-08-08T22:50:05.244Z,53.73
2022-08-08T22:52:36.384Z,53.84
2022-08-08T22:55:04.623Z,53.68
2022-08-08T22:57:44.219Z,53.87
2022-08-08T23:00:15.695Z,54.13
2022-08-08T23:02:44.699Z,54.10
2022-08-08T23:05:16.409Z,53.83
2022-08-08T23:07:49.176Z,54.02
2022-08-08T23:10:21.309Z,53.93
2022-08-08T23:12:48.488Z,53.87
2022-08-08T23:16:39.153Z,54.13
2022-08-08T23:18:07.184Z,54.03
2022-08-08T23:20:34.039Z,54.09
2022-08-08T23:23:00.396Z,54.03
2022-08-08T23:25:26.762Z,53.72
2022-08-08T23:27:54.253Z,53.97
2022-08-08T23:30:22.406Z,53.82
2022-08-08T23:32:49.044Z,53.64
2022-08-08T23:35:17.180Z,54.07
2022-08-08T23:38:01.213Z,53.74
2022-08-08T23:40:29.738Z,53.99
2022-08-08T23:42:56.648Z,53.71
2022-08-08T23:49:01.303Z,53.82
2022-08-08T23:49:04.769Z,53.95
2022-08-08T23:50:57.285Z,53.99
2022-08-08T23:54:05.589Z,53.80
2022-08-08T23:56:10.332Z,53.75
2022-08-08T23:58:38.502Z,53.66
